createdAt,value
2023-03-08T00:01:23.595Z,58.88
2023-03-08T00:03:56.485Z,59.02
2023-03-08T00:06:25.342Z,58.58
2023-03-08T00:08:58.216Z,58.67
2023-03-08T00:11:25.566Z,58.58
2023-03-08T00:13:52.960Z,58.77
2023-03-08T00:16:19.985Z,58.90
2023-03-08T00:18:47.200Z,58.75
2023-03-08T00:21:17.863Z,58.84
2023-03-08T00:23:45.795Z,58.44
2023-03-08T00:26:13.719Z,58.21
2023-03-08T00:28:41.273Z,58.17
2023-03-08T00:31:11.802Z,58.13
2023-03-08T00:33:39.138Z,57.92
2023-03-08T00:36:16.031Z,57.89
2023-03-08T00:38:44.057Z,58.24
2023-03-08T00:41:13.724Z,58.50
2023-03-08T00:43:42.410Z,57.89
2023-03-08T00:46:10.723Z,57.85
2023-03-08T00:48:38.554Z,58.35
2023-03-08T00:51:05.874Z,58.01
2023-03-08T00:53:32.992Z,58.44
2023-03-08T00:56:01.189Z,58.46
2023-03-08T00:58:31.423Z,58.39
2023-03-08T01:00:59.508Z,58.64
2023-03-08T01:03:26.996Z,58.57
2023-03-08T01:05:57.704Z,58.01
2023-03-08T01:08:26.862Z,57.71
2023-03-08T01:11:00.600Z,57.28
2023-03-08T01:13:35.377Z,57.42
2023-03-08T01:16:03.376Z,57.14
2023-03-08T01:18:31.148Z,57.16
2023-03-08T01:21:01.493Z,57.01
2023-03-08T01:23:29.818Z,56.92
2023-03-08T01:26:02.284Z,56.83
2023-03-08T01:28:30.518Z,56.60
2023-03-08T01:31:12.110Z,57.13
2023-03-08T01:33:42.336Z,57.61
2023-03-08T01:36:13.066Z,57.46
2023-03-08T01:38:40.136Z,57.36
2023-03-08T01:41:12.638Z,57.03
2023-03-08T01:43:40.545Z,57.50
2023-03-08T01:46:16.032Z,57.72
2023-03-08T01:49:00.201Z,57.49
2023-03-08T01:51:36.028Z,57.36
2023-03-08T01:54:11.448Z,57.18
2023-03-08T01:56:41.139Z,56.74
2023-03-08T01:59:08.886Z,56.43
2023-03-08T02:01:37.144Z,56.43
2023-03-08T02:04:04.417Z,56.49
2023-03-08T02:06:33.279Z,57.04
2023-03-08T02:09:04.790Z,57.23
2023-03-08T02:11:37.537Z,57.01
2023-03-08T02:14:04.779Z,57.15
2023-03-08T02:16:32.911Z,56.92
2023-03-08T02:19:11.388Z,56.93
2023-03-08T02:21:38.512Z,56.99
2023-03-08T02:24:26.263Z,56.47
2023-03-08T02:27:03.712Z,56.81
2023-03-08T02:29:30.965Z,56.27
2023-03-08T02:31:58.033Z,55.51
2023-03-08T02:34:25.149Z,55.64
2023-03-08T02:36:52.309Z,55.89
2023-03-08T02:39:19.416Z,56.31
2023-03-08T02:41:46.973Z,56.58
2023-03-08T02:44:14.105Z,56.74
2023-03-08T02:46:41.224Z,56.91
2023-03-08T02:49:08.372Z,56.49
2023-03-08T02:51:35.415Z,56.34
2023-03-08T02:54:02.601Z,56.47
2023-03-08T02:56:29.749Z,56.78
2023-03-08T02:58:56.890Z,56.84
2023-03-08T03:01:24.624Z,56.97
2023-03-08T03:03:55.345Z,56.60
2023-03-08T03:06:23.142Z,56.61
2023-03-08T03:08:53.339Z,56.34
2023-03-08T03:11:23.170Z,56.35
2023-03-08T03:14:00.124Z,56.38
2023-03-08T03:16:33.514Z,56.15
2023-03-08T03:19:00.633Z,56.18
2023-03-08T03:21:27.896Z,56.16
2023-03-08T03:23:55.891Z,56.22
2023-03-08T03:26:29.774Z,56.47
2023-03-08T03:28:58.865Z,56.45
2023-03-08T03:31:29.992Z,56.60
2023-03-08T03:33:57.919Z,56.78
2023-03-08T03:36:27.095Z,56.88
2023-03-08T03:38:55.488Z,56.95
2023-03-08T03:41:24.225Z,57.20
2023-03-08T03:44:00.741Z,56.87
2023-03-08T03:46:30.010Z,56.54
2023-03-08T03:48:58.772Z,56.71
2023-03-08T03:51:32.055Z,56.87
2023-03-08T03:54:14.409Z,56.85
2023-03-08T03:56:43.800Z,56.85
2023-03-08T03:59:10.867Z,56.49
2023-03-08T04:01:38.130Z,56.22
2023-03-08T04:04:21.358Z,56.27
2023-03-08T04:06:49.388Z,56.15
2023-03-08T04:09:19.857Z,56.01
2023-03-08T04:11:53.731Z,56.66
2023-03-08T04:14:22.449Z,56.38
2023-03-08T04:16:51.273Z,56.52
2023-03-08T04:19:26.292Z,56.54
2023-03-08T04:21:56.507Z,56.67
2023-03-08T04:24:26.957Z,56.63
2023-03-08T04:26:58.139Z,56.47
2023-03-08T04:29:25.319Z,56.58
2023-03-08T04:31:55.684Z,56.74
2023-03-08T04:34:22.866Z,57.01
2023-03-08T04:36:51.279Z,56.68
2023-03-08T04:39:19.282Z,56.65
2023-03-08T04:41:46.415Z,56.87
2023-03-08T04:44:26.630Z,56.69
2023-03-08T04:46:54.624Z,56.52
2023-03-08T04:49:28.660Z,56.44
2023-03-08T04:52:00.607Z,56.49
2023-03-08T04:54:28.715Z,56.89
2023-03-08T04:57:02.114Z,56.93
2023-03-08T04:59:30.698Z,56.74
2023-03-08T05:02:00.686Z,56.52
2023-03-08T05:04:29.791Z,56.11
2023-03-08T05:06:56.926Z,56.61
2023-03-08T05:09:27.430Z,56.69
2023-03-08T05:11:54.553Z,56.92
2023-03-08T05:14:23.152Z,56.38
2023-03-08T05:16:50.699Z,56.55
2023-03-08T05:19:18.057Z,56.74
2023-03-08T05:21:51.795Z,56.74
2023-03-08T05:24:20.227Z,57.14
2023-03-08T05:26:49.107Z,57.03
2023-03-08T05:29:18.414Z,56.92
2023-03-08T05:31:46.716Z,57.03
2023-03-08T05:34:15.247Z,57.22
2023-03-08T05:36:46.405Z,57.01
2023-03-08T05:39:13.535Z,56.98
2023-03-08T05:41:47.252Z,56.75
2023-03-08T05:44:20.871Z,56.83
2023-03-08T05:46:51.286Z,57.01
2023-03-08T05:49:19.399Z,56.94
2023-03-08T05:51:46.903Z,56.56
2023-03-08T05:54:14.650Z,56.78
2023-03-08T05:56:43.749Z,56.87
2023-03-08T05:59:21.290Z,57.00
2023-03-08T06:01:49.281Z,56.66
2023-03-08T06:04:39.635Z,56.49
2023-03-08T06:07:06.930Z,56.39
2023-03-08T06:09:38.520Z,55.93
2023-03-08T06:12:07.913Z,55.90
2023-03-08T06:14:35.023Z,55.71
2023-03-08T06:17:02.333Z,55.54
2023-03-08T06:19:32.584Z,55.59
2023-03-08T06:21:59.670Z,55.71
2023-03-08T06:24:28.042Z,55.67
2023-03-08T06:26:57.693Z,55.48
2023-03-08T06:29:24.748Z,55.75
2023-03-08T06:31:52.068Z,55.53
2023-03-08T06:34:21.889Z,55.45
2023-03-08T06:36:52.261Z,54.48
2023-03-08T06:39:22.327Z,54.34
2023-03-08T06:41:49.515Z,54.03
2023-03-08T06:44:16.585Z,53.71
2023-03-08T06:46:46.671Z,53.51
2023-03-08T06:49:18.408Z,53.05
2023-03-08T06:51:45.518Z,53.12
2023-03-08T06:54:17.368Z,52.88
2023-03-08T06:56:48.472Z,52.67
2023-03-08T06:59:15.707Z,52.60
2023-03-08T07:01:43.253Z,52.69
2023-03-08T07:04:14.602Z,52.01
2023-03-08T07:06:41.659Z,51.92
2023-03-08T07:09:11.236Z,51.64
2023-03-08T07:11:39.378Z,51.25
2023-03-08T07:14:06.399Z,51.57
2023-03-08T07:16:33.505Z,51.14
2023-03-08T07:19:02.966Z,50.70
2023-03-08T07:21:32.282Z,50.21
2023-03-08T07:23:59.347Z,50.10
2023-03-08T07:26:26.488Z,50.15
2023-03-08T07:28:53.541Z,49.79
2023-03-08T07:31:20.735Z,49.50
2023-03-08T07:33:47.819Z,49.32
2023-03-08T07:36:15.019Z,49.47
2023-03-08T07:38:42.067Z,49.43
2023-03-08T07:41:09.173Z,49.62
2023-03-08T07:43:36.185Z,49.51
2023-03-08T07:46:14.774Z,49.25
2023-03-08T07:48:41.934Z,49.63
2023-03-08T07:51:10.328Z,49.72
2023-03-08T07:53:38.178Z,49.35
2023-03-08T07:56:06.469Z,48.58
2023-03-08T07:58:33.534Z,48.08
2023-03-08T08:01:00.896Z,48.07
2023-03-08T08:03:31.938Z,47.87
2023-03-08T08:06:06.382Z,47.75
2023-03-08T08:08:33.792Z,47.77
2023-03-08T08:11:01.257Z,47.81
2023-03-08T08:13:28.457Z,47.91
2023-03-08T08:16:02.902Z,47.68
2023-03-08T08:18:30.047Z,46.77
2023-03-08T08:21:06.690Z,46.57
2023-03-08T08:23:35.327Z,46.23
2023-03-08T08:26:07.975Z,46.24
2023-03-08T08:28:36.617Z,46.13
2023-03-08T08:31:14.239Z,45.90
2023-03-08T08:33:41.739Z,46.23
2023-03-08T08:36:13.815Z,46.32
2023-03-08T08:38:40.988Z,46.81
2023-03-08T08:41:09.131Z,45.98
2023-03-08T08:43:37.318Z,45.45
2023-03-08T08:46:05.542Z,45.51
2023-03-08T08:48:33.790Z,45.96
2023-03-08T08:51:01.452Z,45.87
2023-03-08T08:53:29.024Z,45.98
2023-03-08T08:55:56.486Z,45.89
2023-03-08T08:58:24.327Z,46.39
2023-03-08T09:00:52.063Z,46.71
2023-03-08T09:03:19.405Z,46.99
2023-03-08T09:05:46.560Z,46.83
2023-03-08T09:08:13.696Z,46.55
2023-03-08T09:10:42.264Z,46.96
2023-03-08T09:13:09.473Z,47.00
2023-03-08T09:15:37.365Z,47.24
2023-03-08T09:18:05.700Z,47.11
2023-03-08T09:20:32.803Z,46.45
2023-03-08T09:23:00.001Z,46.65
2023-03-08T09:25:27.174Z,46.65
2023-03-08T09:27:54.212Z,46.94
2023-03-08T09:30:21.504Z,47.42
2023-03-08T09:32:48.614Z,48.08
2023-03-08T09:35:15.875Z,48.37
2023-03-08T09:37:43.168Z,48.03
2023-03-08T09:40:24.394Z,47.76
2023-03-08T09:42:52.278Z,47.72
2023-03-08T09:45:28.425Z,47.75
2023-03-08T09:48:24.598Z,48.44
2023-03-08T09:50:54.280Z,48.39
2023-03-08T09:53:47.516Z,48.35
2023-03-08T09:56:29.537Z,48.11
2023-03-08T09:59:07.720Z,48.32
2023-03-08T10:02:25.091Z,48.29
2023-03-08T10:05:13.946Z,48.73
2023-03-08T10:08:00.668Z,48.32
2023-03-08T10:11:07.624Z,48.51
2023-03-08T10:13:50.717Z,48.30
2023-03-08T10:16:36.106Z,47.89
2023-03-08T10:19:21.777Z,48.22
2023-03-08T10:21:49.197Z,48.15
2023-03-08T10:24:50.783Z,47.73
2023-03-08T10:27:27.732Z,48.02
2023-03-08T10:29:58.920Z,48.31
2023-03-08T10:32:28.063Z,48.49
2023-03-08T10:35:05.725Z,48.39
2023-03-08T10:37:34.390Z,48.08
2023-03-08T10:40:07.732Z,47.81
2023-03-08T10:42:35.970Z,47.81
2023-03-08T10:45:20.790Z,48.00
2023-03-08T10:48:20.557Z,48.51
2023-03-08T10:51:04.788Z,48.58
2023-03-08T10:53:33.132Z,48.35
2023-03-08T10:56:01.923Z,48.61
2023-03-08T10:58:37.324Z,48.74
2023-03-08T11:01:34.120Z,49.12
2023-03-08T11:04:17.773Z,49.38
2023-03-08T11:06:45.234Z,49.65
2023-03-08T11:09:36.920Z,49.63
2023-03-08T11:12:04.369Z,49.79
2023-03-08T11:14:32.064Z,49.07
2023-03-08T11:17:25.304Z,49.02
2023-03-08T11:20:00.667Z,49.09
2023-03-08T11:22:37.882Z,49.15
2023-03-08T11:25:41.785Z,48.74
2023-03-08T11:28:11.705Z,48.93
2023-03-08T11:30:56.508Z,48.94
2023-03-08T11:33:53.417Z,49.91
2023-03-08T11:36:45.383Z,49.40
2023-03-08T11:39:25.714Z,49.07
2023-03-08T11:42:18.637Z,48.44
2023-03-08T11:45:04.628Z,48.02
2023-03-08T11:48:02.636Z,48.08
2023-03-08T11:51:25.156Z,47.51
2023-03-08T11:54:03.497Z,47.54
2023-03-08T11:56:45.606Z,47.57
2023-03-08T11:59:53.300Z,47.46
2023-03-08T12:02:27.108Z,48.00
2023-03-08T12:05:17.639Z,48.38
2023-03-08T12:07:59.989Z,48.53
2023-03-08T12:10:44.688Z,49.16
2023-03-08T12:13:25.606Z,48.93
2023-03-08T12:16:22.510Z,48.57
2023-03-08T12:19:01.024Z,48.44
2023-03-08T12:21:52.707Z,49.20
2023-03-08T12:24:31.803Z,48.58
2023-03-08T12:27:10.811Z,48.65
2023-03-08T12:30:00.276Z,49.00
2023-03-08T12:32:28.416Z,49.61
2023-03-08T12:35:35.800Z,49.76
2023-03-08T12:38:20.078Z,50.31
2023-03-08T12:40:53.836Z,50.71
2023-03-08T12:43:21.062Z,50.68
2023-03-08T12:45:57.368Z,50.28
2023-03-08T12:48:44.561Z,50.30
2023-03-08T12:51:16.334Z,50.48
2023-03-08T12:53:52.570Z,50.65
2023-03-08T12:56:36.592Z,51.29
2023-03-08T12:59:15.504Z,50.66
2023-03-08T13:01:46.296Z,51.17
2023-03-08T13:04:40.840Z,50.46
2023-03-08T13:07:22.850Z,50.33
2023-03-08T13:10:06.652Z,50.70
2023-03-08T13:13:21.107Z,50.52
2023-03-08T13:16:31.485Z,49.60
2023-03-08T13:19:26.762Z,49.63
2023-03-08T13:22:09.182Z,49.59
2023-03-08T13:24:46.945Z,49.54
2023-03-08T13:27:50.040Z,48.40
2023-03-08T13:30:35.333Z,48.50
2023-03-08T13:33:12.843Z,48.32
2023-03-08T13:35:40.041Z,47.91
2023-03-08T13:38:07.596Z,47.93
2023-03-08T13:40:35.742Z,46.92
2023-03-08T13:43:08.555Z,47.50
2023-03-08T13:45:35.939Z,47.72
2023-03-08T13:48:08.829Z,47.71
2023-03-08T13:50:42.662Z,47.66
2023-03-08T13:53:18.815Z,47.41
2023-03-08T13:55:51.369Z,46.43
2023-03-08T13:58:34.983Z,46.82
2023-03-08T14:01:27.691Z,46.25
2023-03-08T14:03:58.423Z,46.53
2023-03-08T14:06:33.745Z,46.54
2023-03-08T14:09:03.420Z,46.77
2023-03-08T14:11:38.203Z,46.46
2023-03-08T14:14:14.531Z,47.17
2023-03-08T14:16:42.194Z,48.10
2023-03-08T14:19:11.141Z,47.50
2023-03-08T14:21:38.729Z,47.76
2023-03-08T14:24:09.892Z,47.41
2023-03-08T14:26:39.600Z,47.83
2023-03-08T14:29:22.754Z,48.67
2023-03-08T14:31:57.781Z,48.78
2023-03-08T14:34:36.145Z,49.23
2023-03-08T14:37:11.278Z,49.27
2023-03-08T14:39:45.556Z,49.19
2023-03-08T14:42:32.591Z,49.57
2023-03-08T14:45:06.947Z,49.79
2023-03-08T14:47:35.705Z,50.99
2023-03-08T14:50:24.810Z,51.16
2023-03-08T14:52:55.518Z,51.09
2023-03-08T14:55:32.381Z,50.68
2023-03-08T14:58:10.310Z,50.45
2023-03-08T15:00:52.045Z,51.33
2023-03-08T15:03:19.323Z,51.61
2023-03-08T15:05:46.711Z,51.28
2023-03-08T15:08:15.850Z,51.07
2023-03-08T15:10:43.347Z,51.35
2023-03-08T15:13:18.352Z,51.74
2023-03-08T15:15:45.751Z,51.74
2023-03-08T15:18:12.996Z,51.44
2023-03-08T15:20:44.801Z,51.27
2023-03-08T15:23:24.093Z,51.45
2023-03-08T15:25:51.676Z,51.60
2023-03-08T15:28:21.926Z,51.57
2023-03-08T15:30:54.909Z,51.29
2023-03-08T15:33:23.529Z,52.12
2023-03-08T15:35:51.504Z,52.31
2023-03-08T15:38:20.958Z,52.67
2023-03-08T15:40:48.148Z,52.78
2023-03-08T15:43:15.171Z,52.98
2023-03-08T15:45:42.318Z,52.83
2023-03-08T15:48:16.737Z,52.76
2023-03-08T15:50:45.140Z,52.94
2023-03-08T15:53:14.239Z,53.18
2023-03-08T15:55:43.978Z,53.53
2023-03-08T15:58:12.072Z,53.50
2023-03-08T16:00:39.788Z,53.34
2023-03-08T16:03:07.004Z,53.23
2023-03-08T16:05:33.964Z,53.05
2023-03-08T16:08:03.839Z,53.52
2023-03-08T16:10:40.393Z,54.09
2023-03-08T16:13:08.455Z,53.62
2023-03-08T16:15:39.579Z,54.13
2023-03-08T16:18:06.629Z,54.73
2023-03-08T16:20:33.722Z,54.57
2023-03-08T16:23:00.902Z,55.05
2023-03-08T16:25:28.077Z,54.51
2023-03-08T16:27:55.163Z,54.60
2023-03-08T16:30:22.531Z,54.91
2023-03-08T16:32:53.416Z,54.97
2023-03-08T16:35:21.178Z,54.79
2023-03-08T16:37:48.201Z,54.69
2023-03-08T16:40:15.582Z,55.08
2023-03-08T16:42:42.872Z,54.95
2023-03-08T16:45:10.519Z,54.75
2023-03-08T16:47:37.642Z,54.88
2023-03-08T16:50:05.374Z,54.62
2023-03-08T16:52:32.446Z,54.59
2023-03-08T16:54:59.548Z,55.20
2023-03-08T16:57:27.109Z,55.35
2023-03-08T16:59:54.367Z,55.60
2023-03-08T17:02:22.481Z,55.60
2023-03-08T17:04:50.510Z,55.08
2023-03-08T17:07:18.970Z,55.01
2023-03-08T17:09:46.441Z,55.79
2023-03-08T17:12:13.922Z,56.08
2023-03-08T17:14:41.295Z,56.35
2023-03-08T17:17:10.436Z,56.38
2023-03-08T17:19:40.433Z,56.55
2023-03-08T17:22:09.328Z,56.24
2023-03-08T17:24:36.532Z,56.12
2023-03-08T17:27:04.414Z,56.08
2023-03-08T17:29:31.505Z,56.46
2023-03-08T17:31:58.598Z,56.40
2023-03-08T17:34:25.727Z,56.79
2023-03-08T17:36:53.481Z,56.45
2023-03-08T17:39:20.831Z,56.55
2023-03-08T17:41:48.085Z,56.16
2023-03-08T17:44:15.304Z,55.83
2023-03-08T17:46:42.581Z,55.85
2023-03-08T17:49:12.056Z,56.18
2023-03-08T17:51:39.692Z,56.32
2023-03-08T17:54:07.487Z,55.92
2023-03-08T17:56:36.605Z,56.13
2023-03-08T17:59:03.743Z,56.51
2023-03-08T18:01:31.803Z,56.31
2023-03-08T18:03:59.927Z,56.54
2023-03-08T18:06:36.059Z,56.47
2023-03-08T18:09:10.157Z,56.51
2023-03-08T18:11:41.275Z,56.38
2023-03-08T18:14:12.146Z,56.51
2023-03-08T18:16:40.275Z,56.09
2023-03-08T18:19:08.033Z,56.15
2023-03-08T18:21:36.566Z,56.55
2023-03-08T18:24:05.292Z,56.75
2023-03-08T18:26:33.890Z,56.73
2023-03-08T18:29:00.956Z,57.19
2023-03-08T18:31:28.915Z,57.17
2023-03-08T18:33:56.085Z,56.94
2023-03-08T18:36:24.160Z,56.74
2023-03-08T18:38:51.392Z,57.07
2023-03-08T18:41:29.547Z,57.02
2023-03-08T18:43:58.829Z,56.63
2023-03-08T18:46:29.358Z,56.31
2023-03-08T18:49:00.766Z,56.65
2023-03-08T18:51:29.679Z,56.45
2023-03-08T18:53:58.371Z,56.74
2023-03-08T18:56:26.782Z,56.91
2023-03-08T18:58:56.003Z,56.67
2023-03-08T19:01:24.276Z,56.85
2023-03-08T19:03:52.536Z,56.74
2023-03-08T19:06:19.615Z,56.40
2023-03-08T19:08:46.701Z,56.56
2023-03-08T19:11:20.704Z,56.57
2023-03-08T19:13:48.692Z,56.78
2023-03-08T19:16:27.779Z,57.05
2023-03-08T19:18:59.013Z,57.41
2023-03-08T19:21:34.014Z,57.40
2023-03-08T19:24:01.675Z,57.12
2023-03-08T19:26:41.111Z,56.74
2023-03-08T19:29:22.630Z,56.85
2023-03-08T19:32:18.694Z,56.74
2023-03-08T19:34:45.960Z,56.88
2023-03-08T19:37:14.384Z,57.05
2023-03-08T19:39:43.698Z,57.03
2023-03-08T19:42:15.654Z,57.07
2023-03-08T19:44:48.306Z,56.54
2023-03-08T19:47:16.827Z,56.50
2023-03-08T19:49:44.485Z,56.79
2023-03-08T19:52:16.073Z,56.17
2023-03-08T19:54:43.327Z,56.32
2023-03-08T19:57:10.750Z,56.66
2023-03-08T19:59:38.260Z,57.04
2023-03-08T20:02:08.842Z,57.14
2023-03-08T20:04:36.598Z,56.93
2023-03-08T20:07:04.951Z,56.80
2023-03-08T20:09:32.189Z,56.90
2023-03-08T20:11:59.360Z,56.88
2023-03-08T20:14:27.886Z,57.10
2023-03-08T20:16:55.949Z,57.09
2023-03-08T20:19:23.391Z,57.54
2023-03-08T20:21:50.765Z,57.17
2023-03-08T20:24:19.266Z,57.46
2023-03-08T20:26:46.717Z,57.50
2023-03-08T20:29:14.007Z,57.48
2023-03-08T20:31:41.804Z,57.57
2023-03-08T20:34:09.221Z,57.79
2023-03-08T20:36:37.369Z,57.64
2023-03-08T20:39:04.650Z,57.41
2023-03-08T20:41:31.814Z,57.31
2023-03-08T20:43:58.882Z,57.25
2023-03-08T20:46:33.241Z,57.14
2023-03-08T20:49:00.980Z,56.92
2023-03-08T20:51:28.448Z,57.35
2023-03-08T20:53:56.617Z,57.40
2023-03-08T20:56:26.186Z,57.34
2023-03-08T20:58:54.897Z,57.14
2023-03-08T21:01:30.203Z,57.42
2023-03-08T21:03:57.550Z,57.96
2023-03-08T21:06:28.981Z,57.90
2023-03-08T21:08:56.568Z,58.06
2023-03-08T21:11:23.999Z,57.95
2023-03-08T21:13:52.453Z,57.69
2023-03-08T21:16:22.375Z,57.76
2023-03-08T21:18:51.805Z,57.90
2023-03-08T21:21:34.488Z,57.80
2023-03-08T21:24:08.532Z,57.95
2023-03-08T21:26:35.876Z,57.99
2023-03-08T21:29:06.758Z,58.13
2023-03-08T21:31:37.646Z,58.04
2023-03-08T21:34:06.946Z,58.15
2023-03-08T21:36:35.330Z,58.35
2023-03-08T21:39:03.507Z,58.01
2023-03-08T21:41:34.538Z,58.28
2023-03-08T21:44:04.408Z,58.06
2023-03-08T21:46:31.989Z,57.79
2023-03-08T21:48:59.090Z,57.66
2023-03-08T21:51:26.151Z,57.92
2023-03-08T21:53:53.263Z,57.88
2023-03-08T21:56:20.384Z,57.91
2023-03-08T21:58:47.482Z,58.27
2023-03-08T22:01:30.387Z,58.29
2023-03-08T22:03:59.518Z,58.48
2023-03-08T22:06:26.999Z,58.42
2023-03-08T22:08:54.428Z,58.58
2023-03-08T22:11:23.445Z,58.47
2023-03-08T22:13:57.406Z,57.99
2023-03-08T22:16:26.129Z,57.97
2023-03-08T22:18:59.724Z,58.13
2023-03-08T22:21:28.201Z,58.45
2023-03-08T22:23:59.196Z,58.56
2023-03-08T22:26:28.196Z,58.67
2023-03-08T22:28:55.836Z,58.67
2023-03-08T22:31:28.939Z,58.33
2023-03-08T22:33:55.992Z,58.17
2023-03-08T22:36:24.094Z,58.03
2023-03-08T22:38:51.261Z,58.05
2023-03-08T22:41:25.371Z,58.25
2023-03-08T22:43:53.030Z,58.21
2023-03-08T22:46:26.449Z,57.58
2023-03-08T22:48:56.501Z,57.27
2023-03-08T22:51:25.214Z,57.31
2023-03-08T22:53:52.302Z,57.72
2023-03-08T22:56:24.313Z,57.91
2023-03-08T22:58:52.075Z,58.36
2023-03-08T23:01:22.635Z,58.16
2023-03-08T23:03:50.658Z,58.02
2023-03-08T23:06:18.558Z,57.98
2023-03-08T23:08:46.960Z,57.61
2023-03-08T23:11:14.780Z,57.29
2023-03-08T23:13:42.287Z,57.44
2023-03-08T23:16:13.784Z,57.92
2023-03-08T23:18:41.363Z,57.84
2023-03-08T23:21:13.059Z,57.91
2023-03-08T23:23:40.772Z,58.24
2023-03-08T23:26:11.265Z,58.22
2023-03-08T23:28:38.504Z,58.39
2023-03-08T23:31:19.121Z,58.40
2023-03-08T23:33:47.172Z,58.57
2023-03-08T23:36:16.919Z,58.62
2023-03-08T23:38:44.803Z,58.57
2023-03-08T23:41:13.924Z,58.19
2023-03-08T23:43:42.154Z,58.17
2023-03-08T23:46:16.410Z,58.59
2023-03-08T23:48:45.446Z,58.53
2023-03-08T23:51:16.824Z,58.62
2023-03-08T23:53:43.906Z,58.54
2023-03-08T23:56:30.792Z,58.39
2023-03-08T23:59:01.229Z,58.75
